createdAt,value
2018-06-11T00:01:12.352Z,99.90
2018-06-11T00:02:15.743Z,99.90
2018-06-11T00:03:19.095Z,99.90
2018-06-11T00:04:22.490Z,99.90
2018-06-11T00:05:25.847Z,99.90
2018-06-11T00:06:29.183Z,99.90
2018-06-11T00:07:32.524Z,99.90
2018-06-11T00:08:35.860Z,99.90
2018-06-11T00:09:39.247Z,99.90
2018-06-11T00:10:42.571Z,99.90
2018-06-11T00:11:45.929Z,99.90
2018-06-11T00:12:49.289Z,99.90
2018-06-11T00:13:52.676Z,99.90
2018-06-11T00:14:56.028Z,99.90
2018-06-11T00:15:59.381Z,99.90
2018-06-11T00:17:02.743Z,99.90
2018-06-11T00:18:06.083Z,99.90
2018-06-11T00:19:09.465Z,99.90
2018-06-11T00:20:12.824Z,99.90
2018-06-11T00:21:16.205Z,99.90
2018-06-11T00:22:19.551Z,99.90
2018-06-11T00:23:22.888Z,99.90
2018-06-11T00:24:26.273Z,99.90
2018-06-11T00:25:29.613Z,99.90
2018-06-11T00:26:32.999Z,99.90
2018-06-11T00:27:36.336Z,99.90
2018-06-11T00:28:40.574Z,99.90
2018-06-11T00:29:43.936Z,99.90
2018-06-11T00:30:47.290Z,99.90
2018-06-11T00:31:50.699Z,99.90
2018-06-11T00:32:54.020Z,99.90
2018-06-11T00:33:57.361Z,99.90
2018-06-11T00:35:00.769Z,99.90
2018-06-11T00:36:04.103Z,99.90
2018-06-11T00:37:07.512Z,99.90
2018-06-11T00:38:10.852Z,99.90
2018-06-11T00:39:14.219Z,99.90
2018-06-11T00:40:17.573Z,99.90
2018-06-11T00:41:20.920Z,99.90
2018-06-11T00:42:24.252Z,99.90
2018-06-11T00:43:30.583Z,99.90
2018-06-11T00:44:33.950Z,99.90
2018-06-11T00:45:37.310Z,99.90
2018-06-11T00:46:40.643Z,99.90
2018-06-11T00:47:44.008Z,99.90
2018-06-11T00:48:47.333Z,99.90
2018-06-11T00:50:53.754Z,99.90
2018-06-11T00:51:57.114Z,99.90
2018-06-11T00:53:00.449Z,99.90
2018-06-11T00:54:03.843Z,99.90
2018-06-11T00:55:07.199Z,99.90
2018-06-11T00:56:10.924Z,99.90
2018-06-11T00:57:14.278Z,99.90
2018-06-11T00:58:17.699Z,99.90
2018-06-11T00:59:21.027Z,99.90
2018-06-11T01:00:24.376Z,99.90
2018-06-11T01:01:27.715Z,99.90
2018-06-11T01:02:31.069Z,99.90
2018-06-11T01:03:34.486Z,99.90
2018-06-11T01:04:37.878Z,99.90
2018-06-11T01:05:41.211Z,99.90
2018-06-11T01:06:44.556Z,99.90
2018-06-11T01:07:47.893Z,99.90
2018-06-11T01:08:51.276Z,99.90
2018-06-11T01:09:54.604Z,99.90
2018-06-11T01:10:57.991Z,99.90
2018-06-11T01:12:01.345Z,99.90
2018-06-11T01:13:04.730Z,99.90
2018-06-11T01:14:08.111Z,99.90
2018-06-11T01:15:11.448Z,99.90
2018-06-11T01:16:14.790Z,99.90
2018-06-11T01:17:18.168Z,99.90
2018-06-11T01:18:21.522Z,99.90
2018-06-11T01:19:24.899Z,99.90
2018-06-11T01:20:28.231Z,99.90
2018-06-11T01:21:31.601Z,99.90
2018-06-11T01:22:34.950Z,99.90
2018-06-11T01:23:44.991Z,99.90
2018-06-11T01:24:48.361Z,99.90
2018-06-11T01:25:51.692Z,99.90
2018-06-11T01:26:55.060Z,99.90
2018-06-11T01:27:58.416Z,99.90
2018-06-11T01:29:01.808Z,99.90
2018-06-11T01:30:05.237Z,99.90
2018-06-11T01:31:08.597Z,99.90
2018-06-11T01:32:11.979Z,99.90
2018-06-11T01:33:15.337Z,99.90
2018-06-11T01:34:25.131Z,99.90
2018-06-11T01:35:28.452Z,99.90
2018-06-11T01:36:31.846Z,99.90
2018-06-11T01:37:35.197Z,99.90
2018-06-11T01:38:38.561Z,99.90
2018-06-11T01:39:41.919Z,99.90
2018-06-11T01:40:45.268Z,99.90
2018-06-11T01:41:48.631Z,99.90
2018-06-11T01:42:51.991Z,99.90
2018-06-11T01:43:55.315Z,99.90
2018-06-11T01:44:58.659Z,99.90
2018-06-11T01:46:02.017Z,99.90
2018-06-11T01:47:05.416Z,99.90
2018-06-11T01:48:08.811Z,99.90
2018-06-11T01:49:12.151Z,99.90
2018-06-11T01:50:15.482Z,99.90
2018-06-11T01:51:18.815Z,99.90
2018-06-11T01:52:22.130Z,99.90
2018-06-11T01:53:25.507Z,99.90
2018-06-11T01:54:28.835Z,99.90
2018-06-11T01:55:32.195Z,99.90
2018-06-11T01:56:35.536Z,99.90
2018-06-11T01:57:38.888Z,99.90
2018-06-11T01:59:45.335Z,99.90
2018-06-11T02:00:48.699Z,99.90
2018-06-11T02:01:52.115Z,99.90
2018-06-11T02:02:55.487Z,99.90
2018-06-11T02:03:58.892Z,99.90
2018-06-11T02:06:05.413Z,99.90
2018-06-11T02:07:08.752Z,99.90
2018-06-11T02:08:12.120Z,99.90
2018-06-11T02:09:15.521Z,99.90
2018-06-11T02:10:18.896Z,99.90
2018-06-11T02:11:22.282Z,99.90
2018-06-11T02:12:25.625Z,99.90
2018-06-11T02:13:28.976Z,99.90
2018-06-11T02:14:32.355Z,99.90
2018-06-11T02:15:35.724Z,99.90
2018-06-11T02:16:39.063Z,99.90
2018-06-11T02:17:42.416Z,99.90
2018-06-11T02:18:45.798Z,99.90
2018-06-11T02:19:49.201Z,99.90
2018-06-11T02:20:52.546Z,99.90
2018-06-11T02:21:55.960Z,99.90
2018-06-11T02:22:59.264Z,99.90
2018-06-11T02:24:02.612Z,99.90
2018-06-11T02:25:05.995Z,99.90
2018-06-11T02:26:09.346Z,99.90
2018-06-11T02:27:12.710Z,99.90
2018-06-11T02:28:16.090Z,99.90
2018-06-11T02:29:19.499Z,99.90
2018-06-11T02:30:22.887Z,99.90
2018-06-11T02:31:26.247Z,99.90
2018-06-11T02:32:29.650Z,99.90
2018-06-11T02:33:33.017Z,99.90
2018-06-11T02:34:36.351Z,99.90
2018-06-11T02:35:39.741Z,99.90
2018-06-11T02:36:43.106Z,99.90
2018-06-11T02:37:46.454Z,99.90
2018-06-11T02:38:49.816Z,99.90
2018-06-11T02:39:53.173Z,99.90
2018-06-11T02:40:56.539Z,99.90
2018-06-11T02:41:59.931Z,99.90
2018-06-11T02:43:03.363Z,99.90
2018-06-11T02:44:06.725Z,99.90
2018-06-11T02:45:10.059Z,99.90
2018-06-11T02:46:13.408Z,99.90
2018-06-11T02:47:16.768Z,99.90
2018-06-11T02:48:20.149Z,99.90
2018-06-11T02:49:23.498Z,99.90
2018-06-11T02:50:26.877Z,99.90
2018-06-11T02:51:30.223Z,99.90
2018-06-11T02:52:33.584Z,99.90
2018-06-11T02:53:36.991Z,99.90
2018-06-11T02:54:40.336Z,99.90
2018-06-11T02:55:43.691Z,99.90
2018-06-11T02:57:50.141Z,99.90
2018-06-11T02:58:53.532Z,99.90
2018-06-11T02:59:56.878Z,99.90
2018-06-11T03:01:00.268Z,99.90
2018-06-11T03:02:03.738Z,99.90
2018-06-11T03:03:07.109Z,99.90
2018-06-11T03:04:10.496Z,99.90
2018-06-11T03:05:13.901Z,99.90
2018-06-11T03:06:17.240Z,99.90
2018-06-11T03:07:20.606Z,99.90
2018-06-11T03:08:23.965Z,99.90
2018-06-11T03:09:27.338Z,99.90
2018-06-11T03:10:30.734Z,99.90
2018-06-11T03:11:34.111Z,99.90
2018-06-11T03:12:37.516Z,99.90
2018-06-11T03:13:40.867Z,99.90
2018-06-11T03:14:44.203Z,99.90
2018-06-11T03:15:47.583Z,99.90
2018-06-11T03:16:50.931Z,99.90
2018-06-11T03:17:54.335Z,99.90
2018-06-11T03:18:57.704Z,99.90
2018-06-11T03:20:01.045Z,99.90
2018-06-11T03:21:04.488Z,99.90
2018-06-11T03:22:07.832Z,99.90
2018-06-11T03:23:11.164Z,99.90
2018-06-11T03:24:14.539Z,99.90
2018-06-11T03:25:17.889Z,99.90
2018-06-11T03:26:21.275Z,99.90
2018-06-11T03:27:24.628Z,99.90
2018-06-11T03:28:28.000Z,99.90
2018-06-11T03:29:31.375Z,99.90
2018-06-11T03:30:34.732Z,99.90
2018-06-11T03:31:38.081Z,99.90
2018-06-11T03:32:41.437Z,99.90
2018-06-11T03:33:44.808Z,99.90
2018-06-11T03:34:48.172Z,99.90
2018-06-11T03:35:51.548Z,99.90
2018-06-11T03:36:54.932Z,99.90
2018-06-11T03:37:58.350Z,99.90
2018-06-11T03:39:01.696Z,99.90
2018-06-11T03:40:05.052Z,99.90
2018-06-11T03:41:08.402Z,99.90
2018-06-11T03:42:11.750Z,99.90
2018-06-11T03:44:24.744Z,99.90
2018-06-11T03:45:28.116Z,99.90
2018-06-11T03:46:31.465Z,99.90
2018-06-11T03:47:34.807Z,99.90
2018-06-11T03:48:38.239Z,99.90
2018-06-11T03:49:41.613Z,99.90
2018-06-11T03:50:44.971Z,99.90
2018-06-11T03:51:54.752Z,99.90
2018-06-11T03:52:58.124Z,99.90
2018-06-11T03:54:01.506Z,99.90
2018-06-11T03:55:04.940Z,99.90
2018-06-11T03:56:08.307Z,99.90
2018-06-11T03:57:11.701Z,99.90
2018-06-11T03:58:15.073Z,99.90
2018-06-11T03:59:18.489Z,99.90
2018-06-11T04:00:21.859Z,99.90
2018-06-11T04:01:25.230Z,99.90
2018-06-11T04:02:28.603Z,99.90
2018-06-11T04:03:31.949Z,99.90
2018-06-11T04:04:35.352Z,99.90
2018-06-11T04:05:38.748Z,99.90
2018-06-11T04:06:42.120Z,99.90
2018-06-11T04:07:45.486Z,99.90
2018-06-11T04:08:48.829Z,99.90
2018-06-11T04:09:52.239Z,99.90
2018-06-11T04:10:55.622Z,99.90
2018-06-11T04:11:58.953Z,99.90
2018-06-11T04:13:02.311Z,99.90
2018-06-11T04:14:05.663Z,99.90
2018-06-11T04:15:09.039Z,99.90
2018-06-11T04:16:12.405Z,99.90
2018-06-11T04:17:15.746Z,99.90
2018-06-11T04:18:19.120Z,99.90
2018-06-11T04:19:22.490Z,99.90
2018-06-11T04:20:25.860Z,99.90
2018-06-11T04:21:35.483Z,99.90
2018-06-11T04:22:38.832Z,99.90
2018-06-11T04:23:42.187Z,99.90
2018-06-11T04:24:45.579Z,99.90
2018-06-11T04:25:48.969Z,99.90
2018-06-11T04:26:52.365Z,99.90
2018-06-11T04:28:02.411Z,99.90
2018-06-11T04:29:05.773Z,99.90
2018-06-11T04:30:09.122Z,99.90
2018-06-11T04:31:12.501Z,99.90
2018-06-11T04:32:15.852Z,99.90
2018-06-11T04:33:19.197Z,99.90
2018-06-11T04:34:22.534Z,99.90
2018-06-11T04:35:25.863Z,99.90
2018-06-11T04:36:29.259Z,99.90
2018-06-11T04:37:32.595Z,99.90
2018-06-11T04:38:35.926Z,99.90
2018-06-11T04:39:39.336Z,99.90
2018-06-11T04:40:42.655Z,99.90
2018-06-11T04:41:46.029Z,99.90
2018-06-11T04:42:49.349Z,99.90
2018-06-11T04:43:52.706Z,99.90
2018-06-11T04:44:56.064Z,99.90
2018-06-11T04:45:59.409Z,99.90
2018-06-11T04:47:05.687Z,99.90
2018-06-11T04:48:09.051Z,99.90
2018-06-11T04:49:12.372Z,99.90
2018-06-11T04:50:15.709Z,99.90
2018-06-11T04:51:19.038Z,99.90
2018-06-11T04:52:22.459Z,99.90
2018-06-11T04:53:25.800Z,99.90
2018-06-11T04:54:29.142Z,99.90
2018-06-11T04:55:32.470Z,99.90
2018-06-11T04:56:35.834Z,99.90
2018-06-11T04:57:39.215Z,99.90
2018-06-11T04:58:42.555Z,99.90
2018-06-11T04:59:45.907Z,99.90
2018-06-11T05:00:49.257Z,99.90
2018-06-11T05:01:52.633Z,99.90
2018-06-11T05:02:55.964Z,99.90
2018-06-11T05:03:59.309Z,99.90
2018-06-11T05:05:02.692Z,99.90
2018-06-11T05:06:06.046Z,99.90
2018-06-11T05:07:09.496Z,99.90
2018-06-11T05:08:12.919Z,99.90
2018-06-11T05:09:16.347Z,99.90
2018-06-11T05:10:19.706Z,99.90
2018-06-11T05:11:23.086Z,99.90
2018-06-11T05:12:26.449Z,99.90
2018-06-11T05:13:29.795Z,99.90
2018-06-11T05:14:33.148Z,99.90
2018-06-11T05:15:36.489Z,99.90
2018-06-11T05:16:39.838Z,99.90
2018-06-11T05:17:43.216Z,99.90
2018-06-11T05:18:46.571Z,99.90
2018-06-11T05:19:49.926Z,99.90
2018-06-11T05:20:53.289Z,99.90
2018-06-11T05:21:56.613Z,99.90
2018-06-11T05:22:59.989Z,99.90
2018-06-11T05:24:03.320Z,99.90
2018-06-11T05:25:06.668Z,99.90
2018-06-11T05:26:10.021Z,99.90
2018-06-11T05:27:13.360Z,99.90
2018-06-11T05:28:16.751Z,99.90
2018-06-11T05:29:20.082Z,99.90
2018-06-11T05:30:23.420Z,99.90
2018-06-11T05:31:26.764Z,99.90
2018-06-11T05:32:30.240Z,99.90
2018-06-11T05:33:33.599Z,99.90
2018-06-11T05:35:40.043Z,99.90
2018-06-11T05:36:43.389Z,99.90
2018-06-11T05:37:46.787Z,99.90
2018-06-11T05:38:50.110Z,99.90
2018-06-11T05:39:53.449Z,99.90
2018-06-11T05:40:56.788Z,99.90
2018-06-11T05:42:00.169Z,99.90
2018-06-11T05:43:03.511Z,99.90
2018-06-11T05:44:06.866Z,99.90
2018-06-11T05:45:10.262Z,99.90
2018-06-11T05:46:13.607Z,99.90
2018-06-11T05:47:16.987Z,99.90
2018-06-11T05:48:20.310Z,99.90
2018-06-11T05:49:23.634Z,99.90
2018-06-11T05:50:26.954Z,99.90
2018-06-11T05:51:30.319Z,99.90
2018-06-11T05:52:33.710Z,99.90
2018-06-11T05:53:37.042Z,99.90
2018-06-11T05:54:40.392Z,99.90
2018-06-11T05:55:43.736Z,99.90
2018-06-11T05:56:47.072Z,99.90
2018-06-11T05:57:50.427Z,99.90
2018-06-11T05:58:53.768Z,99.90
2018-06-11T05:59:57.123Z,99.90
2018-06-11T06:01:00.533Z,99.90
2018-06-11T06:02:03.925Z,99.90
2018-06-11T06:03:07.288Z,99.90
2018-06-11T06:04:10.649Z,99.90
2018-06-11T06:05:14.001Z,99.90
2018-06-11T06:06:17.398Z,99.90
2018-06-11T06:07:20.759Z,99.90
2018-06-11T06:08:24.107Z,99.90
2018-06-11T06:09:27.537Z,99.90
2018-06-11T06:10:30.872Z,99.90
2018-06-11T06:12:37.323Z,99.90
2018-06-11T06:13:40.696Z,99.90
2018-06-11T06:14:44.068Z,99.90
2018-06-11T06:15:47.400Z,99.90
2018-06-11T06:16:50.740Z,99.90
2018-06-11T06:17:54.103Z,99.90
2018-06-11T06:18:57.467Z,99.90
2018-06-11T06:20:00.843Z,99.90
2018-06-11T06:21:04.205Z,99.90
2018-06-11T06:22:07.532Z,99.90
2018-06-11T06:23:10.871Z,99.90
2018-06-11T06:24:14.205Z,99.90
2018-06-11T06:25:17.576Z,99.90
2018-06-11T06:26:20.951Z,99.90
2018-06-11T06:27:24.314Z,99.90
2018-06-11T06:28:27.673Z,99.90
2018-06-11T06:29:31.026Z,99.90
2018-06-11T06:30:34.344Z,99.90
2018-06-11T06:31:37.749Z,99.90
2018-06-11T06:32:41.083Z,99.90
2018-06-11T06:33:44.414Z,99.90
2018-06-11T06:34:47.860Z,99.90
2018-06-11T06:35:51.168Z,99.90
2018-06-11T06:36:54.542Z,99.90
2018-06-11T06:37:57.884Z,99.90
2018-06-11T06:39:01.244Z,99.90
2018-06-11T06:40:04.596Z,99.90
2018-06-11T06:41:07.929Z,99.90
2018-06-11T06:42:11.312Z,99.90
2018-06-11T06:43:14.656Z,99.90
2018-06-11T06:44:18.041Z,99.90
2018-06-11T06:45:21.397Z,99.90
2018-06-11T06:46:24.768Z,99.90
2018-06-11T06:47:28.144Z,99.90
2018-06-11T06:48:31.483Z,99.90
2018-06-11T06:49:34.823Z,99.90
2018-06-11T06:50:38.169Z,99.90
2018-06-11T06:51:41.515Z,99.90
2018-06-11T06:52:44.956Z,99.90
2018-06-11T06:53:48.312Z,99.90
2018-06-11T06:54:51.685Z,99.90
2018-06-11T06:55:55.017Z,99.90
2018-06-11T06:56:58.358Z,99.90
2018-06-11T06:58:01.777Z,99.90
2018-06-11T06:59:05.114Z,99.90
2018-06-11T07:00:08.445Z,99.90
2018-06-11T07:01:11.792Z,99.90
2018-06-11T07:02:15.124Z,99.90
2018-06-11T07:03:18.505Z,99.90
2018-06-11T07:04:21.854Z,99.90
2018-06-11T07:05:25.207Z,99.90
2018-06-11T07:06:28.572Z,99.90
2018-06-11T07:07:31.902Z,99.90
2018-06-11T07:08:35.275Z,99.90
2018-06-11T07:09:38.665Z,99.90
2018-06-11T07:10:41.994Z,99.90
2018-06-11T07:11:45.366Z,99.90
2018-06-11T07:12:48.717Z,99.90
2018-06-11T07:13:52.057Z,99.90
2018-06-11T07:14:55.412Z,99.90
2018-06-11T07:15:58.794Z,99.90
2018-06-11T07:17:02.543Z,99.90
2018-06-11T07:18:05.884Z,99.90
2018-06-11T07:19:09.232Z,99.90
2018-06-11T07:20:12.584Z,99.90
2018-06-11T07:21:15.971Z,99.90
2018-06-11T07:22:19.310Z,99.90
2018-06-11T07:23:22.653Z,99.90
2018-06-11T07:24:26.017Z,99.90
2018-06-11T07:25:29.373Z,99.90
2018-06-11T07:26:32.712Z,99.90
2018-06-11T07:27:36.052Z,99.90
2018-06-11T07:28:39.430Z,99.90
2018-06-11T07:29:42.812Z,99.90
2018-06-11T07:30:46.182Z,99.90
2018-06-11T07:31:49.529Z,99.90
2018-06-11T07:32:52.913Z,99.90
2018-06-11T07:33:56.252Z,99.90
2018-06-11T07:34:59.602Z,99.90
2018-06-11T07:36:02.941Z,99.90
2018-06-11T07:37:06.285Z,99.90
2018-06-11T07:38:09.659Z,99.90
2018-06-11T07:39:13.014Z,99.90
2018-06-11T07:40:16.373Z,99.90
2018-06-11T07:41:19.713Z,99.90
2018-06-11T07:42:23.061Z,99.90
2018-06-11T07:43:26.426Z,99.90
2018-06-11T07:44:29.776Z,99.90
2018-06-11T07:45:33.135Z,99.90
2018-06-11T07:46:36.508Z,99.90
2018-06-11T07:47:39.862Z,99.90
2018-06-11T07:48:43.204Z,99.90
2018-06-11T07:50:49.692Z,99.90
2018-06-11T07:51:53.017Z,99.90
2018-06-11T07:52:56.365Z,99.90
2018-06-11T07:53:59.744Z,99.90
2018-06-11T07:55:03.097Z,99.90
2018-06-11T07:56:06.488Z,99.90
2018-06-11T07:57:09.835Z,99.90
2018-06-11T07:58:13.159Z,99.90
2018-06-11T07:59:16.507Z,99.90
2018-06-11T08:00:19.859Z,99.90
2018-06-11T08:01:23.274Z,99.90
2018-06-11T08:02:26.624Z,99.90
2018-06-11T08:03:29.973Z,99.90
2018-06-11T08:04:33.309Z,99.90
2018-06-11T08:05:36.759Z,99.90
2018-06-11T08:06:40.136Z,99.90
2018-06-11T08:07:43.529Z,99.90
2018-06-11T08:08:46.876Z,99.90
2018-06-11T08:09:50.227Z,99.90
2018-06-11T08:10:53.578Z,99.90
2018-06-11T08:11:56.944Z,99.90
2018-06-11T08:13:00.335Z,99.90
2018-06-11T08:14:03.689Z,99.90
2018-06-11T08:15:07.070Z,99.90
2018-06-11T08:16:10.421Z,99.90
2018-06-11T08:17:13.769Z,99.90
2018-06-11T08:18:17.142Z,99.90
2018-06-11T08:19:20.483Z,99.90
2018-06-11T08:20:23.831Z,99.90
2018-06-11T08:21:27.154Z,99.90
2018-06-11T08:22:30.524Z,99.90
2018-06-11T08:23:33.860Z,99.90
2018-06-11T08:24:37.202Z,99.90
2018-06-11T08:25:40.536Z,99.90
2018-06-11T08:26:43.898Z,99.90
2018-06-11T08:27:47.233Z,99.90
2018-06-11T08:28:50.598Z,99.90
2018-06-11T08:29:53.933Z,99.90
2018-06-11T08:30:57.292Z,99.90
2018-06-11T08:32:00.651Z,99.90
2018-06-11T08:33:03.989Z,99.90
2018-06-11T08:34:07.375Z,99.90
2018-06-11T08:35:13.675Z,99.90
2018-06-11T08:36:17.011Z,99.90
2018-06-11T08:37:20.338Z,99.90
2018-06-11T08:38:23.676Z,99.90
2018-06-11T08:39:27.063Z,99.90
2018-06-11T08:40:30.435Z,99.90
2018-06-11T08:41:33.776Z,99.90
2018-06-11T08:42:37.125Z,99.90
2018-06-11T08:43:40.489Z,99.90
2018-06-11T08:44:43.904Z,99.90
2018-06-11T08:46:50.315Z,99.90
2018-06-11T08:47:53.665Z,99.90
2018-06-11T08:48:57.065Z,99.90
2018-06-11T08:50:00.489Z,99.90
2018-06-11T08:51:03.844Z,99.90
2018-06-11T08:52:07.207Z,99.90
2018-06-11T08:53:10.539Z,99.90
2018-06-11T08:54:13.894Z,99.90
2018-06-11T08:55:17.261Z,99.90
2018-06-11T08:56:20.647Z,99.90
2018-06-11T08:57:23.975Z,99.90
2018-06-11T08:58:27.382Z,99.90
2018-06-11T08:59:30.729Z,99.90
2018-06-11T09:01:43.919Z,99.90
2018-06-11T09:02:47.304Z,99.90
2018-06-11T09:03:50.632Z,99.90
2018-06-11T09:04:53.992Z,99.90
2018-06-11T09:05:57.360Z,99.90
2018-06-11T09:07:00.811Z,99.90
2018-06-11T09:08:04.163Z,99.90
2018-06-11T09:09:08.934Z,99.90
2018-06-11T09:10:12.267Z,99.90
2018-06-11T09:11:15.636Z,99.90
2018-06-11T09:12:19.008Z,99.90
2018-06-11T09:13:22.403Z,99.90
2018-06-11T09:14:25.740Z,99.90
2018-06-11T09:15:29.085Z,99.90
2018-06-11T09:16:32.427Z,99.90
2018-06-11T09:17:35.770Z,99.90
2018-06-11T09:18:39.255Z,99.90
2018-06-11T09:19:42.597Z,99.90
2018-06-11T09:20:45.944Z,99.90
2018-06-11T09:21:49.310Z,99.90
2018-06-11T09:22:52.679Z,99.90
2018-06-11T09:23:56.043Z,99.90
2018-06-11T09:24:59.431Z,99.90
2018-06-11T09:26:02.825Z,99.90
2018-06-11T09:27:06.200Z,99.90
2018-06-11T09:30:15.690Z,99.90
2018-06-11T09:31:19.129Z,99.90
2018-06-11T09:32:22.476Z,99.90
2018-06-11T09:33:25.840Z,99.90
2018-06-11T09:34:29.211Z,99.90
2018-06-11T09:35:32.567Z,99.90
2018-06-11T09:37:39.036Z,99.90
2018-06-11T09:38:42.390Z,99.90
2018-06-11T09:39:45.772Z,99.90
2018-06-11T09:40:49.123Z,99.90
2018-06-11T09:41:52.522Z,99.90
2018-06-11T09:42:55.868Z,99.90
2018-06-11T09:43:59.241Z,99.90
2018-06-11T09:45:02.633Z,99.90
2018-06-11T09:46:05.966Z,99.90
2018-06-11T09:47:09.316Z,99.90
2018-06-11T09:48:12.643Z,99.90
2018-06-11T09:49:16.011Z,99.90
2018-06-11T09:50:19.395Z,99.90
2018-06-11T09:51:22.733Z,99.90
2018-06-11T09:52:26.132Z,99.90
2018-06-11T09:53:29.467Z,99.90
2018-06-11T09:54:32.808Z,99.90
2018-06-11T09:55:36.166Z,99.90
2018-06-11T09:56:39.560Z,99.90
2018-06-11T09:57:42.949Z,99.90
2018-06-11T09:58:46.303Z,99.90
2018-06-11T09:59:49.651Z,99.90
2018-06-11T10:00:53.013Z,99.90
2018-06-11T10:01:56.408Z,99.90
2018-06-11T10:02:59.738Z,99.90
2018-06-11T10:04:03.090Z,99.90
2018-06-11T10:05:06.660Z,99.90
2018-06-11T10:06:10.017Z,99.90
2018-06-11T10:07:13.431Z,99.90
2018-06-11T10:08:16.773Z,99.90
2018-06-11T10:09:20.117Z,99.90
2018-06-11T10:10:23.473Z,99.90
2018-06-11T10:11:26.818Z,99.90
2018-06-11T10:12:30.233Z,99.90
2018-06-11T10:13:33.639Z,99.90
2018-06-11T10:14:43.511Z,99.90
2018-06-11T10:15:46.893Z,99.90
2018-06-11T10:16:50.240Z,99.90
2018-06-11T10:17:53.566Z,99.90
2018-06-11T10:18:56.967Z,99.90
2018-06-11T10:20:00.324Z,99.30
2018-06-11T10:21:03.712Z,99.90
2018-06-11T10:22:07.040Z,99.90
2018-06-11T10:23:10.388Z,99.60
2018-06-11T10:24:13.777Z,99.10
2018-06-11T10:25:17.131Z,99.50
2018-06-11T10:26:20.467Z,98.40
2018-06-11T10:27:23.794Z,98.80
2018-06-11T10:28:27.128Z,98.40
2018-06-11T10:29:30.540Z,98.60
2018-06-11T10:30:33.890Z,97.80
2018-06-11T10:31:37.237Z,98.30
2018-06-11T10:32:40.578Z,98.30
2018-06-11T10:33:43.943Z,97.80
2018-06-11T10:34:47.324Z,98.10
2018-06-11T10:35:50.688Z,97.80
2018-06-11T10:36:54.074Z,98.30
2018-06-11T10:37:57.442Z,98.40
2018-06-11T10:39:00.792Z,97.20
2018-06-11T10:40:04.222Z,96.70
2018-06-11T10:41:07.579Z,97.00
2018-06-11T10:42:10.923Z,98.00
2018-06-11T10:43:14.297Z,97.50
2018-06-11T10:44:17.680Z,98.30
2018-06-11T10:45:21.054Z,97.70
2018-06-11T10:46:24.392Z,97.60
2018-06-11T10:47:27.729Z,97.10
2018-06-11T10:48:31.098Z,98.00
2018-06-11T10:49:34.467Z,97.70
2018-06-11T10:50:37.826Z,97.00
2018-06-11T10:51:41.173Z,97.50
2018-06-11T10:52:44.514Z,97.30
2018-06-11T10:53:47.885Z,97.00
2018-06-11T10:54:51.263Z,96.30
2018-06-11T10:55:54.622Z,95.90
2018-06-11T10:56:57.982Z,96.40
2018-06-11T10:58:01.344Z,97.20
2018-06-11T10:59:04.720Z,96.70
2018-06-11T11:00:08.116Z,96.40
2018-06-11T11:01:11.483Z,97.20
2018-06-11T11:02:14.839Z,95.80
2018-06-11T11:03:18.169Z,95.70
2018-06-11T11:04:21.536Z,96.50
2018-06-11T11:05:24.885Z,96.50
2018-06-11T11:06:28.306Z,96.30
2018-06-11T11:07:31.673Z,95.00
2018-06-11T11:08:35.031Z,95.50
2018-06-11T11:09:38.417Z,96.90
2018-06-11T11:10:41.771Z,96.20
2018-06-11T11:11:45.116Z,95.50
2018-06-11T11:12:48.488Z,95.30
2018-06-11T11:13:51.876Z,95.30
2018-06-11T11:15:01.923Z,95.50
2018-06-11T11:16:05.275Z,95.80
2018-06-11T11:17:08.616Z,96.60
2018-06-11T11:18:11.961Z,97.30
2018-06-11T11:19:15.355Z,96.80
2018-06-11T11:20:18.697Z,96.00
2018-06-11T11:21:22.113Z,95.60
2018-06-11T11:22:25.448Z,95.30
2018-06-11T11:23:28.814Z,94.00
2018-06-11T11:24:32.139Z,94.50
2018-06-11T11:25:35.574Z,94.10
2018-06-11T11:26:38.944Z,94.30
2018-06-11T11:27:42.362Z,94.70
2018-06-11T11:28:45.687Z,93.50
2018-06-11T11:29:49.042Z,94.80
2018-06-11T11:30:52.440Z,95.00
2018-06-11T11:31:55.801Z,95.00
2018-06-11T11:32:59.167Z,94.30
2018-06-11T11:34:02.500Z,94.60
2018-06-11T11:35:05.907Z,94.10
2018-06-11T11:36:09.256Z,93.90
2018-06-11T11:37:12.631Z,93.70
2018-06-11T11:38:16.020Z,93.60
2018-06-11T11:39:19.386Z,94.90
2018-06-11T11:40:22.731Z,94.50
2018-06-11T11:41:26.123Z,94.40
2018-06-11T11:42:29.464Z,95.70
2018-06-11T11:43:32.859Z,94.70
2018-06-11T11:44:36.208Z,94.80
2018-06-11T11:45:39.556Z,94.00
2018-06-11T11:46:42.899Z,92.50
2018-06-11T11:47:46.232Z,92.80
2018-06-11T11:48:49.630Z,92.00
2018-06-11T11:49:52.980Z,90.40
2018-06-11T11:50:56.325Z,91.70
2018-06-11T11:51:59.667Z,93.60
2018-06-11T11:53:03.035Z,92.30
2018-06-11T11:54:06.407Z,91.70
2018-06-11T11:55:09.758Z,91.90
2018-06-11T11:56:13.134Z,91.20
2018-06-11T11:57:16.506Z,91.00
2018-06-11T11:58:19.851Z,92.00
2018-06-11T11:59:23.226Z,91.60
2018-06-11T12:00:26.621Z,91.10
2018-06-11T12:01:29.993Z,90.30
2018-06-11T12:02:33.370Z,91.40
2018-06-11T12:03:36.724Z,90.80
2018-06-11T12:04:40.103Z,90.20
2018-06-11T12:05:43.442Z,88.80
2018-06-11T12:06:46.783Z,88.50
2018-06-11T12:07:50.145Z,90.00
2018-06-11T12:08:53.509Z,89.00
2018-06-11T12:09:56.865Z,90.20
2018-06-11T12:11:00.191Z,90.10
2018-06-11T12:12:03.539Z,90.80
2018-06-11T12:13:06.867Z,90.40
2018-06-11T12:14:10.241Z,90.50
2018-06-11T12:15:13.591Z,86.20
2018-06-11T12:16:16.931Z,86.70
2018-06-11T12:17:20.286Z,88.10
2018-06-11T12:18:23.668Z,87.70
2018-06-11T12:19:26.987Z,89.30
2018-06-11T12:20:30.377Z,89.60
2018-06-11T12:21:33.729Z,88.90
2018-06-11T12:22:37.078Z,90.30
2018-06-11T12:23:40.464Z,90.10
2018-06-11T12:24:43.816Z,88.90
2018-06-11T12:25:47.153Z,90.00
2018-06-11T12:26:50.521Z,90.20
2018-06-11T12:27:53.872Z,85.90
2018-06-11T12:28:57.224Z,86.40
2018-06-11T12:30:00.596Z,83.40
2018-06-11T12:32:07.008Z,85.20
2018-06-11T12:33:10.336Z,84.70
2018-06-11T12:34:13.692Z,81.10
2018-06-11T12:35:17.064Z,81.60
2018-06-11T12:36:20.399Z,82.10
2018-06-11T12:37:23.752Z,80.90
2018-06-11T12:38:27.094Z,80.50
2018-06-11T12:39:30.420Z,78.20
2018-06-11T12:40:33.819Z,78.50
2018-06-11T12:41:37.152Z,75.30
2018-06-11T12:42:40.483Z,75.10
2018-06-11T12:43:43.827Z,77.40
2018-06-11T12:44:47.219Z,77.10
2018-06-11T12:45:50.556Z,78.20
2018-06-11T12:46:53.925Z,80.90
2018-06-11T12:47:57.277Z,81.40
2018-06-11T12:49:00.611Z,81.20
2018-06-11T12:50:03.975Z,79.50
2018-06-11T12:51:07.752Z,81.40
2018-06-11T12:52:11.124Z,85.50
2018-06-11T12:53:14.469Z,83.00
2018-06-11T12:55:20.848Z,79.90
2018-06-11T12:56:24.247Z,80.60
2018-06-11T12:57:27.572Z,82.40
2018-06-11T12:58:30.908Z,83.00
2018-06-11T12:59:34.238Z,83.20
2018-06-11T13:00:37.568Z,82.60
2018-06-11T13:01:40.916Z,81.80
2018-06-11T13:02:44.270Z,81.70
2018-06-11T13:03:47.607Z,81.80
2018-06-11T13:04:50.955Z,81.40
2018-06-11T13:05:54.288Z,80.70
2018-06-11T13:06:57.755Z,80.30
2018-06-11T13:08:01.103Z,80.70
2018-06-11T13:09:06.925Z,77.30
2018-06-11T13:10:10.246Z,75.80
2018-06-11T13:11:13.584Z,78.00
2018-06-11T13:12:16.964Z,77.90
2018-06-11T13:13:20.294Z,77.10
2018-06-11T13:14:23.626Z,76.50
2018-06-11T13:15:26.969Z,76.50
2018-06-11T13:16:30.334Z,79.50
2018-06-11T13:17:33.704Z,78.40
2018-06-11T13:18:37.025Z,79.80
2018-06-11T13:19:40.355Z,78.90
2018-06-11T13:20:43.737Z,80.10
2018-06-11T13:21:47.085Z,79.20
2018-06-11T13:22:50.436Z,76.20
2018-06-11T13:23:53.775Z,77.00
2018-06-11T13:24:57.099Z,76.70
2018-06-11T13:26:00.443Z,77.10
2018-06-11T13:27:03.781Z,76.20
2018-06-11T13:28:07.132Z,76.00
2018-06-11T13:29:10.488Z,74.00
2018-06-11T13:30:13.828Z,74.60
2018-06-11T13:31:17.200Z,75.50
2018-06-11T13:32:20.568Z,77.70
2018-06-11T13:33:23.900Z,76.40
2018-06-11T13:34:27.236Z,76.00
2018-06-11T13:35:30.575Z,75.10
2018-06-11T13:36:33.932Z,73.50
2018-06-11T13:37:37.309Z,72.70
2018-06-11T13:38:40.643Z,73.80
2018-06-11T13:39:43.969Z,73.50
2018-06-11T13:40:47.297Z,73.20
2018-06-11T13:41:50.626Z,74.60
2018-06-11T13:42:53.999Z,74.10
2018-06-11T13:43:57.330Z,74.30
2018-06-11T13:45:00.671Z,73.00
2018-06-11T13:46:04.035Z,72.30
2018-06-11T13:47:07.387Z,73.10
2018-06-11T13:48:10.752Z,72.40
2018-06-11T13:49:14.120Z,71.60
2018-06-11T13:50:17.527Z,73.80
2018-06-11T13:51:20.827Z,75.30
2018-06-11T13:52:24.167Z,73.60
2018-06-11T13:53:27.551Z,75.00